sensor_id;sensor_type;location;lat;lon;timestamp;P1;durP1;ratioP1;P2;durP2;ratioP2
11121;SDS011;5615;49.304;10.576;2022-10-16T00:01:47;4.70;;;2.33;;
11121;SDS011;5615;49.304;10.576;2022-10-16T00:04:15;3.70;;;2.50;;
11121;SDS011;5615;49.304;10.576;2022-10-16T00:06:41;3.13;;;2.50;;
11121;SDS011;5615;49.304;10.576;2022-10-16T00:09:08;5.80;;;2.57;;
11121;SDS011;5615;49.304;10.576;2022-10-16T00:11:36;5.90;;;2.57;;
11121;SDS011;5615;49.304;10.576;2022-10-16T00:14:05;3.30;;;2.40;;
11121;SDS011;5615;49.304;10.576;2022-10-16T00:16:33;6.40;;;2.63;;
11121;SDS011;5615;49.304;10.576;2022-10-16T00:19:01;8.60;;;2.80;;
11121;SDS011;5615;49.304;10.576;2022-10-16T00:21:29;3.10;;;2.50;;
11121;SDS011;5615;49.304;10.576;2022-10-16T00:23:57;3.80;;;2.80;;
11121;SDS011;5615;49.304;10.576;2022-10-16T00:26:26;3.43;;;2.47;;
11121;SDS011;5615;49.304;10.576;2022-10-16T00:28:54;2.93;;;2.40;;
11121;SDS011;5615;49.304;10.576;2022-10-16T00:31:21;5.77;;;2.57;;
11121;SDS011;5615;49.304;10.576;2022-10-16T00:33:49;4.00;;;2.30;;
11121;SDS011;5615;49.304;10.576;2022-10-16T00:36:17;3.33;;;2.50;;
11121;SDS011;5615;49.304;10.576;2022-10-16T00:38:46;5.10;;;2.60;;
11121;SDS011;5615;49.304;10.576;2022-10-16T00:41:17;6.37;;;2.80;;
11121;SDS011;5615;49.304;10.576;2022-10-16T00:43:45;4.60;;;3.00;;
11121;SDS011;5615;49.304;10.576;2022-10-16T00:46:14;3.77;;;2.47;;
11121;SDS011;5615;49.304;10.576;2022-10-16T00:48:45;2.80;;;2.50;;
11121;SDS011;5615;49.304;10.576;2022-10-16T00:51:17;5.17;;;2.80;;
11121;SDS011;5615;49.304;10.576;2022-10-16T00:53:46;5.33;;;2.60;;
11121;SDS011;5615;49.304;10.576;2022-10-16T00:56:14;12.43;;;2.70;;
11121;SDS011;5615;49.304;10.576;2022-10-16T00:58:41;3.63;;;2.63;;
11121;SDS011;5615;49.304;10.576;2022-10-16T01:01:07;3.87;;;2.40;;
11121;SDS011;5615;49.304;10.576;2022-10-16T01:03:35;3.93;;;2.53;;
11121;SDS011;5615;49.304;10.576;2022-10-16T01:06:05;13.53;;;2.60;;
11121;SDS011;5615;49.304;10.576;2022-10-16T01:08:43;3.43;;;2.60;;
11121;SDS011;5615;49.304;10.576;2022-10-16T01:11:17;4.83;;;2.30;;
11121;SDS011;5615;49.304;10.576;2022-10-16T01:13:50;6.97;;;2.87;;
11121;SDS011;5615;49.304;10.576;2022-10-16T01:16:21;7.20;;;2.80;;
11121;SDS011;5615;49.304;10.576;2022-10-16T01:18:57;2.90;;;2.70;;
11121;SDS011;5615;49.304;10.576;2022-10-16T01:21:31;5.43;;;2.70;;
11121;SDS011;5615;49.304;10.576;2022-10-16T01:24:03;3.97;;;2.63;;
11121;SDS011;5615;49.304;10.576;2022-10-16T01:26:42;5.53;;;2.63;;
11121;SDS011;5615;49.304;10.576;2022-10-16T01:29:25;3.87;;;2.57;;
11121;SDS011;5615;49.304;10.576;2022-10-16T01:31:56;7.43;;;3.30;;
11121;SDS011;5615;49.304;10.576;2022-10-16T01:34:28;6.80;;;2.40;;
11121;SDS011;5615;49.304;10.576;2022-10-16T01:37:00;3.53;;;2.70;;
11121;SDS011;5615;49.304;10.576;2022-10-16T01:39:31;4.40;;;2.43;;
11121;SDS011;5615;49.304;10.576;2022-10-16T01:42:06;3.80;;;2.67;;
11121;SDS011;5615;49.304;10.576;2022-10-16T01:44:37;8.30;;;3.13;;
11121;SDS011;5615;49.304;10.576;2022-10-16T01:47:05;10.63;;;3.13;;
11121;SDS011;5615;49.304;10.576;2022-10-16T01:49:33;3.07;;;2.70;;
11121;SDS011;5615;49.304;10.576;2022-10-16T01:52:04;3.60;;;2.80;;
11121;SDS011;5615;49.304;10.576;2022-10-16T01:54:35;6.70;;;3.10;;
11121;SDS011;5615;49.304;10.576;2022-10-16T01:57:05;8.93;;;2.80;;
11121;SDS011;5615;49.304;10.576;2022-10-16T01:59:35;4.43;;;2.63;;
11121;SDS011;5615;49.304;10.576;2022-10-16T02:02:06;4.10;;;3.00;;
11121;SDS011;5615;49.304;10.576;2022-10-16T02:04:36;5.63;;;2.90;;
11121;SDS011;5615;49.304;10.576;2022-10-16T02:07:06;4.00;;;2.67;;
11121;SDS011;5615;49.304;10.576;2022-10-16T02:09:33;4.90;;;3.33;;
11121;SDS011;5615;49.304;10.576;2022-10-16T02:12:03;6.93;;;3.47;;
11121;SDS011;5615;49.304;10.576;2022-10-16T02:14:36;3.93;;;3.20;;
11121;SDS011;5615;49.304;10.576;2022-10-16T02:17:09;4.53;;;3.10;;
11121;SDS011;5615;49.304;10.576;2022-10-16T02:19:37;3.47;;;3.00;;
11121;SDS011;5615;49.304;10.576;2022-10-16T02:22:04;4.50;;;2.90;;
11121;SDS011;5615;49.304;10.576;2022-10-16T02:24:35;3.90;;;3.30;;
11121;SDS011;5615;49.304;10.576;2022-10-16T02:27:10;4.00;;;2.80;;
11121;SDS011;5615;49.304;10.576;2022-10-16T02:29:40;4.87;;;2.70;;
11121;SDS011;5615;49.304;10.576;2022-10-16T02:32:10;3.63;;;3.00;;
11121;SDS011;5615;49.304;10.576;2022-10-16T02:34:41;5.70;;;2.97;;
11121;SDS011;5615;49.304;10.576;2022-10-16T02:37:09;4.93;;;3.10;;
11121;SDS011;5615;49.304;10.576;2022-10-16T02:39:36;3.27;;;2.97;;
11121;SDS011;5615;49.304;10.576;2022-10-16T02:42:04;10.63;;;3.00;;
11121;SDS011;5615;49.304;10.576;2022-10-16T02:44:36;5.50;;;3.20;;
11121;SDS011;5615;49.304;10.576;2022-10-16T02:47:03;5.87;;;3.00;;
11121;SDS011;5615;49.304;10.576;2022-10-16T02:49:30;4.20;;;3.23;;
11121;SDS011;5615;49.304;10.576;2022-10-16T02:51:56;4.03;;;3.17;;
11121;SDS011;5615;49.304;10.576;2022-10-16T02:54:23;6.47;;;3.53;;
11121;SDS011;5615;49.304;10.576;2022-10-16T02:56:50;5.43;;;3.40;;
11121;SDS011;5615;49.304;10.576;2022-10-16T02:59:16;5.07;;;3.13;;
11121;SDS011;5615;49.304;10.576;2022-10-16T03:01:44;3.87;;;3.20;;
11121;SDS011;5615;49.304;10.576;2022-10-16T03:04:11;4.33;;;3.33;;
11121;SDS011;5615;49.304;10.576;2022-10-16T03:06:38;5.77;;;3.20;;
11121;SDS011;5615;49.304;10.576;2022-10-16T03:09:04;6.47;;;3.17;;
11121;SDS011;5615;49.304;10.576;2022-10-16T03:11:31;3.30;;;3.00;;
11121;SDS011;5615;49.304;10.576;2022-10-16T03:13:57;5.30;;;3.37;;
11121;SDS011;5615;49.304;10.576;2022-10-16T03:16:24;5.17;;;3.73;;
11121;SDS011;5615;49.304;10.576;2022-10-16T03:18:52;4.00;;;3.60;;
11121;SDS011;5615;49.304;10.576;2022-10-16T03:21:19;4.63;;;3.10;;
11121;SDS011;5615;49.304;10.576;2022-10-16T03:23:45;4.57;;;3.57;;
11121;SDS011;5615;49.304;10.576;2022-10-16T03:26:12;9.33;;;3.50;;
11121;SDS011;5615;49.304;10.576;2022-10-16T03:28:39;4.30;;;3.57;;
11121;SDS011;5615;49.304;10.576;2022-10-16T03:31:06;6.07;;;3.60;;
11121;SDS011;5615;49.304;10.576;2022-10-16T03:33:33;4.63;;;3.70;;
11121;SDS011;5615;49.304;10.576;2022-10-16T03:36:01;5.67;;;3.90;;
11121;SDS011;5615;49.304;10.576;2022-10-16T03:38:28;4.90;;;3.47;;
11121;SDS011;5615;49.304;10.576;2022-10-16T03:40:54;7.27;;;3.83;;
11121;SDS011;5615;49.304;10.576;2022-10-16T03:43:21;4.37;;;3.40;;
11121;SDS011;5615;49.304;10.576;2022-10-16T03:45:49;5.27;;;3.60;;
11121;SDS011;5615;49.304;10.576;2022-10-16T03:48:16;8.93;;;3.70;;
11121;SDS011;5615;49.304;10.576;2022-10-16T03:50:42;3.93;;;3.50;;
11121;SDS011;5615;49.304;10.576;2022-10-16T03:53:10;6.57;;;3.50;;
11121;SDS011;5615;49.304;10.576;2022-10-16T03:55:37;7.60;;;3.43;;
11121;SDS011;5615;49.304;10.576;2022-10-16T03:58:04;5.13;;;3.50;;
11121;SDS011;5615;49.304;10.576;2022-10-16T04:00:31;5.50;;;3.50;;
11121;SDS011;5615;49.304;10.576;2022-10-16T04:02:57;3.90;;;3.60;;
11121;SDS011;5615;49.304;10.576;2022-10-16T04:05:24;4.97;;;4.00;;
11121;SDS011;5615;49.304;10.576;2022-10-16T04:07:51;3.40;;;3.10;;
11121;SDS011;5615;49.304;10.576;2022-10-16T04:10:19;5.17;;;3.40;;
11121;SDS011;5615;49.304;10.576;2022-10-16T04:12:45;4.90;;;3.33;;
11121;SDS011;5615;49.304;10.576;2022-10-16T04:15:12;6.80;;;3.27;;
11121;SDS011;5615;49.304;10.576;2022-10-16T04:17:39;5.00;;;3.57;;
11121;SDS011;5615;49.304;10.576;2022-10-16T04:20:06;8.97;;;3.60;;
11121;SDS011;5615;49.304;10.576;2022-10-16T04:22:33;7.10;;;3.70;;
11121;SDS011;5615;49.304;10.576;2022-10-16T04:24:59;6.17;;;3.93;;
11121;SDS011;5615;49.304;10.576;2022-10-16T04:27:27;5.83;;;3.90;;
11121;SDS011;5615;49.304;10.576;2022-10-16T04:29:56;5.93;;;3.77;;
11121;SDS011;5615;49.304;10.576;2022-10-16T04:32:22;6.83;;;3.80;;
11121;SDS011;5615;49.304;10.576;2022-10-16T04:34:49;8.00;;;3.63;;
11121;SDS011;5615;49.304;10.576;2022-10-16T04:37:16;6.17;;;3.83;;
11121;SDS011;5615;49.304;10.576;2022-10-16T04:39:42;5.23;;;3.50;;
11121;SDS011;5615;49.304;10.576;2022-10-16T04:42:10;5.83;;;3.43;;
11121;SDS011;5615;49.304;10.576;2022-10-16T04:44:38;4.30;;;3.80;;
11121;SDS011;5615;49.304;10.576;2022-10-16T04:47:05;5.80;;;3.80;;
11121;SDS011;5615;49.304;10.576;2022-10-16T04:49:31;4.93;;;4.20;;
11121;SDS011;5615;49.304;10.576;2022-10-16T04:51:58;5.10;;;4.00;;
11121;SDS011;5615;49.304;10.576;2022-10-16T04:54:25;7.10;;;4.50;;
11121;SDS011;5615;49.304;10.576;2022-10-16T04:56:51;7.53;;;4.43;;
11121;SDS011;5615;49.304;10.576;2022-10-16T04:59:18;9.23;;;4.53;;
11121;SDS011;5615;49.304;10.576;2022-10-16T05:01:47;7.67;;;5.00;;
11121;SDS011;5615;49.304;10.576;2022-10-16T05:04:14;6.63;;;4.50;;
11121;SDS011;5615;49.304;10.576;2022-10-16T05:06:40;4.77;;;4.37;;
11121;SDS011;5615;49.304;10.576;2022-10-16T05:09:07;5.20;;;4.70;;
11121;SDS011;5615;49.304;10.576;2022-10-16T05:11:34;7.90;;;4.80;;
11121;SDS011;5615;49.304;10.576;2022-10-16T05:14:01;7.50;;;4.70;;
11121;SDS011;5615;49.304;10.576;2022-10-16T05:16:28;7.17;;;4.57;;
11121;SDS011;5615;49.304;10.576;2022-10-16T05:18:56;6.87;;;4.97;;
11121;SDS011;5615;49.304;10.576;2022-10-16T05:21:23;6.83;;;5.07;;
11121;SDS011;5615;49.304;10.576;2022-10-16T05:23:49;4.93;;;4.50;;
11121;SDS011;5615;49.304;10.576;2022-10-16T05:26:16;7.27;;;4.90;;
11121;SDS011;5615;49.304;10.576;2022-10-16T05:28:43;5.83;;;4.90;;
11121;SDS011;5615;49.304;10.576;2022-10-16T05:31:09;11.13;;;4.67;;
11121;SDS011;5615;49.304;10.576;2022-10-16T05:33:36;8.33;;;5.00;;
11121;SDS011;5615;49.304;10.576;2022-10-16T05:36:05;7.80;;;4.67;;
11121;SDS011;5615;49.304;10.576;2022-10-16T05:38:33;6.87;;;4.33;;
11121;SDS011;5615;49.304;10.576;2022-10-16T05:41:00;5.40;;;4.83;;
11121;SDS011;5615;49.304;10.576;2022-10-16T05:43:27;4.97;;;4.37;;
11121;SDS011;5615;49.304;10.576;2022-10-16T05:45:55;5.13;;;4.63;;
11121;SDS011;5615;49.304;10.576;2022-10-16T05:48:22;5.13;;;4.40;;
11121;SDS011;5615;49.304;10.576;2022-10-16T05:50:55;5.17;;;4.53;;
11121;SDS011;5615;49.304;10.576;2022-10-16T05:53:24;8.93;;;4.90;;
11121;SDS011;5615;49.304;10.576;2022-10-16T05:55:51;6.77;;;3.97;;
11121;SDS011;5615;49.304;10.576;2022-10-16T05:58:18;7.03;;;4.23;;
11121;SDS011;5615;49.304;10.576;2022-10-16T06:00:52;5.87;;;4.40;;
11121;SDS011;5615;49.304;10.576;2022-10-16T06:03:19;5.87;;;4.40;;
11121;SDS011;5615;49.304;10.576;2022-10-16T06:05:46;6.63;;;4.60;;
11121;SDS011;5615;49.304;10.576;2022-10-16T06:08:12;6.40;;;4.43;;
11121;SDS011;5615;49.304;10.576;2022-10-16T06:10:41;7.20;;;5.10;;
11121;SDS011;5615;49.304;10.576;2022-10-16T06:13:08;7.43;;;4.90;;
11121;SDS011;5615;49.304;10.576;2022-10-16T06:15:35;4.23;;;3.83;;
11121;SDS011;5615;49.304;10.576;2022-10-16T06:18:03;4.43;;;4.03;;
11121;SDS011;5615;49.304;10.576;2022-10-16T06:20:30;6.10;;;4.70;;
11121;SDS011;5615;49.304;10.576;2022-10-16T06:22:57;8.10;;;5.33;;
11121;SDS011;5615;49.304;10.576;2022-10-16T06:25:23;5.70;;;4.63;;
11121;SDS011;5615;49.304;10.576;2022-10-16T06:27:51;6.03;;;4.90;;
11121;SDS011;5615;49.304;10.576;2022-10-16T06:30:18;6.97;;;4.40;;
11121;SDS011;5615;49.304;10.576;2022-10-16T06:32:45;8.10;;;4.50;;
11121;SDS011;5615;49.304;10.576;2022-10-16T06:35:11;4.93;;;4.50;;
11121;SDS011;5615;49.304;10.576;2022-10-16T06:37:38;6.43;;;4.13;;
11121;SDS011;5615;49.304;10.576;2022-10-16T06:40:05;8.40;;;4.70;;
11121;SDS011;5615;49.304;10.576;2022-10-16T06:42:32;5.73;;;4.90;;
11121;SDS011;5615;49.304;10.576;2022-10-16T06:45:00;7.93;;;4.50;;
11121;SDS011;5615;49.304;10.576;2022-10-16T06:47:27;5.73;;;3.83;;
11121;SDS011;5615;49.304;10.576;2022-10-16T06:49:54;7.43;;;3.80;;
11121;SDS011;5615;49.304;10.576;2022-10-16T06:52:20;4.93;;;3.80;;
11121;SDS011;5615;49.304;10.576;2022-10-16T06:54:47;7.50;;;3.70;;
11121;SDS011;5615;49.304;10.576;2022-10-16T06:57:14;5.33;;;3.60;;
11121;SDS011;5615;49.304;10.576;2022-10-16T06:59:40;6.93;;;3.40;;
11121;SDS011;5615;49.304;10.576;2022-10-16T07:02:09;5.57;;;3.30;;
11121;SDS011;5615;49.304;10.576;2022-10-16T07:04:35;3.60;;;3.27;;
11121;SDS011;5615;49.304;10.576;2022-10-16T07:07:02;4.57;;;3.87;;
11121;SDS011;5615;49.304;10.576;2022-10-16T07:09:29;5.60;;;3.97;;
11121;SDS011;5615;49.304;10.576;2022-10-16T07:11:56;5.97;;;3.80;;
11121;SDS011;5615;49.304;10.576;2022-10-16T07:14:23;4.67;;;3.80;;
11121;SDS011;5615;49.304;10.576;2022-10-16T07:16:50;3.77;;;3.30;;
11121;SDS011;5615;49.304;10.576;2022-10-16T07:19:18;14.50;;;10.83;;
11121;SDS011;5615;49.304;10.576;2022-10-16T07:21:44;10.53;;;8.83;;
11121;SDS011;5615;49.304;10.576;2022-10-16T07:24:11;14.10;;;12.10;;
11121;SDS011;5615;49.304;10.576;2022-10-16T07:26:39;9.97;;;8.73;;
11121;SDS011;5615;49.304;10.576;2022-10-16T07:29:07;7.50;;;6.20;;
11121;SDS011;5615;49.304;10.576;2022-10-16T07:31:37;7.00;;;5.00;;
11121;SDS011;5615;49.304;10.576;2022-10-16T07:34:05;5.50;;;4.23;;
11121;SDS011;5615;49.304;10.576;2022-10-16T07:36:33;4.85;;;3.22;;
11121;SDS011;5615;49.304;10.576;2022-10-16T07:39:00;4.20;;;3.70;;
11121;SDS011;5615;49.304;10.576;2022-10-16T07:41:27;4.67;;;3.57;;
11121;SDS011;5615;49.304;10.576;2022-10-16T07:43:54;4.13;;;3.53;;
11121;SDS011;5615;49.304;10.576;2022-10-16T07:46:22;6.55;;;3.70;;
11121;SDS011;5615;49.304;10.576;2022-10-16T07:48:49;6.53;;;3.47;;
11121;SDS011;5615;49.304;10.576;2022-10-16T07:51:17;9.73;;;3.77;;
11121;SDS011;5615;49.304;10.576;2022-10-16T07:53:46;4.95;;;3.70;;
11121;SDS011;5615;49.304;10.576;2022-10-16T07:56:13;5.32;;;3.53;;
11121;SDS011;5615;49.304;10.576;2022-10-16T07:58:40;5.15;;;3.13;;
11121;SDS011;5615;49.304;10.576;2022-10-16T08:01:08;5.03;;;3.10;;
11121;SDS011;5615;49.304;10.576;2022-10-16T08:03:36;6.38;;;3.10;;
11121;SDS011;5615;49.304;10.576;2022-10-16T08:06:03;3.13;;;2.83;;
11121;SDS011;5615;49.304;10.576;2022-10-16T08:08:30;3.53;;;2.53;;
11121;SDS011;5615;49.304;10.576;2022-10-16T08:10:58;4.03;;;3.03;;
11121;SDS011;5615;49.304;10.576;2022-10-16T08:13:25;5.70;;;2.83;;
11121;SDS011;5615;49.304;10.576;2022-10-16T08:15:53;3.28;;;2.97;;
11121;SDS011;5615;49.304;10.576;2022-10-16T08:18:20;5.30;;;2.70;;
11121;SDS011;5615;49.304;10.576;2022-10-16T08:20:47;7.60;;;2.90;;
11121;SDS011;5615;49.304;10.576;2022-10-16T08:23:14;6.97;;;3.17;;
11121;SDS011;5615;49.304;10.576;2022-10-16T08:25:40;9.80;;;2.97;;
11121;SDS011;5615;49.304;10.576;2022-10-16T08:28:10;6.85;;;2.85;;
11121;SDS011;5615;49.304;10.576;2022-10-16T08:30:37;3.92;;;2.92;;
11121;SDS011;5615;49.304;10.576;2022-10-16T08:33:04;5.85;;;2.90;;
11121;SDS011;5615;49.304;10.576;2022-10-16T08:35:30;4.68;;;2.78;;
11121;SDS011;5615;49.304;10.576;2022-10-16T08:37:57;5.70;;;2.53;;
11121;SDS011;5615;49.304;10.576;2022-10-16T08:40:25;6.60;;;2.60;;
11121;SDS011;5615;49.304;10.576;2022-10-16T08:42:57;8.10;;;3.28;;
11121;SDS011;5615;49.304;10.576;2022-10-16T08:46:14;4.63;;;2.65;;
11121;SDS011;5615;49.304;10.576;2022-10-16T08:48:48;4.90;;;2.42;;
11121;SDS011;5615;49.304;10.576;2022-10-16T08:51:18;5.25;;;3.00;;
11121;SDS011;5615;49.304;10.576;2022-10-16T08:53:49;6.10;;;2.85;;
11121;SDS011;5615;49.304;10.576;2022-10-16T08:56:18;4.32;;;2.90;;
11121;SDS011;5615;49.304;10.576;2022-10-16T08:58:45;3.75;;;2.80;;
11121;SDS011;5615;49.304;10.576;2022-10-16T09:01:14;3.95;;;2.80;;
11121;SDS011;5615;49.304;10.576;2022-10-16T09:03:48;5.05;;;2.90;;
11121;SDS011;5615;49.304;10.576;2022-10-16T09:06:32;6.10;;;2.80;;
11121;SDS011;5615;49.304;10.576;2022-10-16T09:09:17;4.78;;;2.70;;
11121;SDS011;5615;49.304;10.576;2022-10-16T09:11:58;8.32;;;3.13;;
11121;SDS011;5615;49.304;10.576;2022-10-16T09:14:37;6.28;;;3.05;;
11121;SDS011;5615;49.304;10.576;2022-10-16T09:17:18;9.23;;;3.17;;
11121;SDS011;5615;49.304;10.576;2022-10-16T09:19:52;6.60;;;3.00;;
11121;SDS011;5615;49.304;10.576;2022-10-16T09:22:23;3.90;;;2.55;;
11121;SDS011;5615;49.304;10.576;2022-10-16T09:24:53;4.53;;;3.00;;
11121;SDS011;5615;49.304;10.576;2022-10-16T09:27:21;8.32;;;3.40;;
11121;SDS011;5615;49.304;10.576;2022-10-16T09:29:47;6.78;;;2.80;;
11121;SDS011;5615;49.304;10.576;2022-10-16T09:32:15;5.55;;;2.75;;
11121;SDS011;5615;49.304;10.576;2022-10-16T09:34:47;8.75;;;3.30;;
11121;SDS011;5615;49.304;10.576;2022-10-16T09:37:17;5.07;;;2.63;;
11121;SDS011;5615;49.304;10.576;2022-10-16T09:39:46;7.25;;;2.90;;
11121;SDS011;5615;49.304;10.576;2022-10-16T09:42:14;5.32;;;2.92;;
11121;SDS011;5615;49.304;10.576;2022-10-16T09:44:46;6.35;;;2.85;;
11121;SDS011;5615;49.304;10.576;2022-10-16T09:47:16;5.05;;;2.63;;
11121;SDS011;5615;49.304;10.576;2022-10-16T09:49:52;5.25;;;2.85;;
11121;SDS011;5615;49.304;10.576;2022-10-16T09:52:22;5.30;;;2.60;;
11121;SDS011;5615;49.304;10.576;2022-10-16T09:54:49;6.47;;;2.97;;
11121;SDS011;5615;49.304;10.576;2022-10-16T09:57:17;4.18;;;2.47;;
11121;SDS011;5615;49.304;10.576;2022-10-16T09:59:47;9.80;;;2.67;;
11121;SDS011;5615;49.304;10.576;2022-10-16T10:02:16;4.38;;;2.30;;
11121;SDS011;5615;49.304;10.576;2022-10-16T10:04:48;3.97;;;2.55;;
11121;SDS011;5615;49.304;10.576;2022-10-16T10:07:17;3.55;;;2.33;;
11121;SDS011;5615;49.304;10.576;2022-10-16T10:09:46;3.47;;;2.50;;
11121;SDS011;5615;49.304;10.576;2022-10-16T10:12:17;3.70;;;2.45;;
11121;SDS011;5615;49.304;10.576;2022-10-16T10:14:46;5.57;;;2.33;;
11121;SDS011;5615;49.304;10.576;2022-10-16T10:17:15;5.82;;;2.60;;
11121;SDS011;5615;49.304;10.576;2022-10-16T10:19:50;5.18;;;2.25;;
11121;SDS011;5615;49.304;10.576;2022-10-16T10:22:19;4.25;;;2.40;;
11121;SDS011;5615;49.304;10.576;2022-10-16T10:25:00;3.10;;;2.30;;
11121;SDS011;5615;49.304;10.576;2022-10-16T10:27:56;10.07;;;2.70;;
11121;SDS011;5615;49.304;10.576;2022-10-16T10:30:33;2.63;;;2.20;;
11121;SDS011;5615;49.304;10.576;2022-10-16T10:33:12;4.13;;;2.50;;
11121;SDS011;5615;49.304;10.576;2022-10-16T10:35:48;4.22;;;2.80;;
11121;SDS011;5615;49.304;10.576;2022-10-16T10:38:25;4.43;;;2.70;;
11121;SDS011;5615;49.304;10.576;2022-10-16T10:41:03;5.10;;;2.60;;
11121;SDS011;5615;49.304;10.576;2022-10-16T10:43:47;3.25;;;2.28;;
11121;SDS011;5615;49.304;10.576;2022-10-16T10:46:23;4.57;;;2.28;;
11121;SDS011;5615;49.304;10.576;2022-10-16T10:49:06;4.45;;;2.15;;
11121;SDS011;5615;49.304;10.576;2022-10-16T10:51:55;4.90;;;2.30;;
11121;SDS011;5615;49.304;10.576;2022-10-16T10:54:32;2.47;;;2.08;;
11121;SDS011;5615;49.304;10.576;2022-10-16T10:57:07;5.65;;;2.17;;
11121;SDS011;5615;49.304;10.576;2022-10-16T10:59:47;2.85;;;2.20;;
11121;SDS011;5615;49.304;10.576;2022-10-16T11:02:31;5.18;;;2.20;;
11121;SDS011;5615;49.304;10.576;2022-10-16T11:05:14;6.35;;;2.33;;
11121;SDS011;5615;49.304;10.576;2022-10-16T11:08:02;2.72;;;2.17;;
11121;SDS011;5615;49.304;10.576;2022-10-16T11:10:38;4.82;;;2.47;;
11121;SDS011;5615;49.304;10.576;2022-10-16T11:13:13;6.07;;;2.22;;
11121;SDS011;5615;49.304;10.576;2022-10-16T11:15:47;4.15;;;2.53;;
11121;SDS011;5615;49.304;10.576;2022-10-16T11:18:18;5.03;;;2.17;;
11121;SDS011;5615;49.304;10.576;2022-10-16T11:20:49;4.00;;;2.10;;
11121;SDS011;5615;49.304;10.576;2022-10-16T11:23:21;2.92;;;2.25;;
11121;SDS011;5615;49.304;10.576;2022-10-16T11:25:51;2.58;;;2.30;;
11121;SDS011;5615;49.304;10.576;2022-10-16T11:28:19;3.75;;;2.40;;
11121;SDS011;5615;49.304;10.576;2022-10-16T11:30:52;3.28;;;2.13;;
11121;SDS011;5615;49.304;10.576;2022-10-16T11:33:25;5.18;;;2.05;;
11121;SDS011;5615;49.304;10.576;2022-10-16T11:35:59;3.20;;;1.80;;
11121;SDS011;5615;49.304;10.576;2022-10-16T11:38:30;2.03;;;1.83;;
11121;SDS011;5615;49.304;10.576;2022-10-16T11:41:07;9.20;;;2.15;;
11121;SDS011;5615;49.304;10.576;2022-10-16T11:43:42;4.50;;;1.95;;
11121;SDS011;5615;49.304;10.576;2022-10-16T11:46:15;7.15;;;2.05;;
11121;SDS011;5615;49.304;10.576;2022-10-16T11:48:45;4.57;;;1.90;;
11121;SDS011;5615;49.304;10.576;2022-10-16T11:51:19;2.90;;;1.92;;
11121;SDS011;5615;49.304;10.576;2022-10-16T11:53:53;4.70;;;2.15;;
11121;SDS011;5615;49.304;10.576;2022-10-16T11:56:25;5.22;;;1.92;;
11121;SDS011;5615;49.304;10.576;2022-10-16T11:58:54;2.97;;;1.70;;
11121;SDS011;5615;49.304;10.576;2022-10-16T12:01:27;2.88;;;1.90;;
11121;SDS011;5615;49.304;10.576;2022-10-16T12:04:02;3.08;;;1.70;;
11121;SDS011;5615;49.304;10.576;2022-10-16T12:06:42;3.28;;;2.30;;
11121;SDS011;5615;49.304;10.576;2022-10-16T12:09:14;2.10;;;1.90;;
11121;SDS011;5615;49.304;10.576;2022-10-16T12:11:45;2.65;;;2.10;;
11121;SDS011;5615;49.304;10.576;2022-10-16T12:14:22;4.75;;;2.30;;
11121;SDS011;5615;49.304;10.576;2022-10-16T12:17:02;5.88;;;1.85;;
11121;SDS011;5615;49.304;10.576;2022-10-16T12:19:31;3.45;;;2.20;;
11121;SDS011;5615;49.304;10.576;2022-10-16T12:22:00;4.70;;;1.85;;
11121;SDS011;5615;49.304;10.576;2022-10-16T12:24:31;4.22;;;2.13;;
11121;SDS011;5615;49.304;10.576;2022-10-16T12:27:01;4.22;;;1.90;;
11121;SDS011;5615;49.304;10.576;2022-10-16T12:29:32;4.63;;;2.10;;
11121;SDS011;5615;49.304;10.576;2022-10-16T12:32:01;3.45;;;1.90;;
11121;SDS011;5615;49.304;10.576;2022-10-16T12:34:33;3.80;;;2.15;;
11121;SDS011;5615;49.304;10.576;2022-10-16T12:37:10;4.25;;;2.08;;
11121;SDS011;5615;49.304;10.576;2022-10-16T12:39:40;8.63;;;2.22;;
11121;SDS011;5615;49.304;10.576;2022-10-16T12:42:19;4.10;;;2.08;;
11121;SDS011;5615;49.304;10.576;2022-10-16T12:44:58;2.72;;;1.83;;
11121;SDS011;5615;49.304;10.576;2022-10-16T12:47:35;5.82;;;1.80;;
11121;SDS011;5615;49.304;10.576;2022-10-16T12:50:03;2.45;;;1.75;;
11121;SDS011;5615;49.304;10.576;2022-10-16T12:52:50;3.75;;;1.75;;
11121;SDS011;5615;49.304;10.576;2022-10-16T12:55:17;2.33;;;1.70;;
11121;SDS011;5615;49.304;10.576;2022-10-16T12:57:49;3.70;;;1.83;;
11121;SDS011;5615;49.304;10.576;2022-10-16T13:00:43;4.43;;;1.92;;
11121;SDS011;5615;49.304;10.576;2022-10-16T13:03:24;4.00;;;1.90;;
11121;SDS011;5615;49.304;10.576;2022-10-16T13:06:26;2.15;;;1.70;;
11121;SDS011;5615;49.304;10.576;2022-10-16T13:11:59;4.00;;;1.63;;
11121;SDS011;5615;49.304;10.576;2022-10-16T13:14:41;2.58;;;1.70;;
11121;SDS011;5615;49.304;10.576;2022-10-16T13:17:32;3.00;;;1.63;;
11121;SDS011;5615;49.304;10.576;2022-10-16T13:20:09;4.18;;;1.65;;
11121;SDS011;5615;49.304;10.576;2022-10-16T13:22:44;3.17;;;1.70;;
11121;SDS011;5615;49.304;10.576;2022-10-16T13:25:21;3.35;;;1.60;;
11121;SDS011;5615;49.304;10.576;2022-10-16T13:27:52;4.00;;;1.73;;
11121;SDS011;5615;49.304;10.576;2022-10-16T13:30:23;2.83;;;1.77;;
11121;SDS011;5615;49.304;10.576;2022-10-16T13:32:53;2.00;;;1.67;;
11121;SDS011;5615;49.304;10.576;2022-10-16T13:35:25;2.95;;;1.80;;
11121;SDS011;5615;49.304;10.576;2022-10-16T13:38:03;3.60;;;1.60;;
11121;SDS011;5615;49.304;10.576;2022-10-16T13:40:32;3.15;;;1.67;;
11121;SDS011;5615;49.304;10.576;2022-10-16T13:42:59;2.95;;;2.10;;
11121;SDS011;5615;49.304;10.576;2022-10-16T13:45:26;3.20;;;1.60;;
11121;SDS011;5615;49.304;10.576;2022-10-16T13:48:01;4.13;;;2.00;;
11121;SDS011;5615;49.304;10.576;2022-10-16T13:50:28;1.65;;;1.38;;
11121;SDS011;5615;49.304;10.576;2022-10-16T13:53:02;2.38;;;1.63;;
11121;SDS011;5615;49.304;10.576;2022-10-16T13:55:31;3.65;;;1.60;;
11121;SDS011;5615;49.304;10.576;2022-10-16T13:58:04;4.47;;;1.73;;
11121;SDS011;5615;49.304;10.576;2022-10-16T14:00:31;5.05;;;1.80;;
11121;SDS011;5615;49.304;10.576;2022-10-16T14:02:59;5.50;;;1.60;;
11121;SDS011;5615;49.304;10.576;2022-10-16T14:05:28;5.15;;;1.98;;
11121;SDS011;5615;49.304;10.576;2022-10-16T14:07:55;3.67;;;1.65;;
11121;SDS011;5615;49.304;10.576;2022-10-16T14:10:25;4.03;;;1.70;;
11121;SDS011;5615;49.304;10.576;2022-10-16T14:12:57;3.70;;;1.80;;
11121;SDS011;5615;49.304;10.576;2022-10-16T14:15:25;2.75;;;1.40;;
11121;SDS011;5615;49.304;10.576;2022-10-16T14:17:51;3.22;;;2.10;;
11121;SDS011;5615;49.304;10.576;2022-10-16T14:20:19;3.75;;;1.90;;
11121;SDS011;5615;49.304;10.576;2022-10-16T14:22:57;2.20;;;1.60;;
11121;SDS011;5615;49.304;10.576;2022-10-16T14:25:26;5.43;;;1.73;;
11121;SDS011;5615;49.304;10.576;2022-10-16T14:28:02;3.15;;;1.80;;
11121;SDS011;5615;49.304;10.576;2022-10-16T14:30:31;1.77;;;1.60;;
11121;SDS011;5615;49.304;10.576;2022-10-16T14:33:00;3.95;;;1.60;;
11121;SDS011;5615;49.304;10.576;2022-10-16T14:35:29;3.00;;;1.90;;
11121;SDS011;5615;49.304;10.576;2022-10-16T14:37:58;4.20;;;1.80;;
11121;SDS011;5615;49.304;10.576;2022-10-16T14:40:26;4.28;;;2.10;;
11121;SDS011;5615;49.304;10.576;2022-10-16T14:42:55;2.95;;;1.70;;
11121;SDS011;5615;49.304;10.576;2022-10-16T14:45:23;4.03;;;1.88;;
11121;SDS011;5615;49.304;10.576;2022-10-16T14:47:54;6.10;;;4.57;;
11121;SDS011;5615;49.304;10.576;2022-10-16T14:50:22;2.03;;;1.90;;
11121;SDS011;5615;49.304;10.576;2022-10-16T14:52:49;3.00;;;2.10;;
11121;SDS011;5615;49.304;10.576;2022-10-16T14:55:16;4.95;;;2.00;;
11121;SDS011;5615;49.304;10.576;2022-10-16T14:57:44;4.45;;;2.10;;
11121;SDS011;5615;49.304;10.576;2022-10-16T15:00:15;1.98;;;1.77;;
11121;SDS011;5615;49.304;10.576;2022-10-16T15:02:46;3.47;;;2.13;;
11121;SDS011;5615;49.304;10.576;2022-10-16T15:05:15;3.17;;;2.00;;
11121;SDS011;5615;49.304;10.576;2022-10-16T15:07:44;2.47;;;2.15;;
11121;SDS011;5615;49.304;10.576;2022-10-16T15:10:11;5.00;;;2.30;;